Time;durP1;ratioP1;P1;durP2;ratioP2;P2;SDS_P1;SDS_P2;PMS_P1;PMS_P2;Temp;Humidity;BMP_temperature;BMP_pressure;BME280_temperature;BME280_humidity;BME280_pressure;Samples;Min_cycle;Max_cycle;Signal;HPM_P1;HPM_P2
2022/11/29 00:00:46;;;;;;;49.90;20.60;;;3.10;99.90;;;;;;5016762;28;20006;-81
2022/11/29 00:03:12;;;;;;;50.78;20.35;;;3.00;99.90;;;;;;5015071;28;20153;-81
2022/11/29 00:05:38;;;;;;;50.97;21.27;;;3.10;99.90;;;;;;5017198;28;20037;-81
2022/11/29 00:08:04;;;;;;;60.78;24.23;;;3.00;99.90;;;;;;5017067;28;20030;-81
2022/11/29 00:10:29;;;;;;;47.67;20.98;;;3.10;99.90;;;;;;5016379;28;20058;-81
2022/11/29 00:12:55;;;;;;;49.40;20.92;;;3.10;99.90;;;;;;5014428;28;20007;-81
2022/11/29 00:15:21;;;;;;;56.08;22.27;;;3.00;99.90;;;;;;5013107;28;20037;-81
2022/11/29 00:17:47;;;;;;;48.70;21.45;;;3.00;99.90;;;;;;5014100;28;20030;-80
2022/11/29 00:20:12;;;;;;;52.42;22.33;;;3.00;99.90;;;;;;5014390;28;20450;-80
2022/11/29 00:22:38;;;;;;;52.92;22.27;;;3.00;99.90;;;;;;5014579;28;20077;-80
2022/11/29 00:25:05;;;;;;;56.95;22.48;;;2.90;99.90;;;;;;5014046;28;20026;-80
2022/11/29 00:27:31;;;;;;;55.90;22.23;;;2.90;99.90;;;;;;5014179;28;20061;-80
2022/11/29 00:29:57;;;;;;;49.70;20.58;;;2.90;99.90;;;;;;5015146;28;20034;-81
2022/11/29 00:32:23;;;;;;;56.08;22.83;;;3.00;99.90;;;;;;5013043;28;20098;-80
2022/11/29 00:34:48;;;;;;;54.72;22.92;;;2.90;99.90;;;;;;5008533;28;20049;-81
2022/11/29 00:37:14;;;;;;;55.38;22.02;;;2.90;99.90;;;;;;5009984;28;20114;-80
2022/11/29 00:39:40;;;;;;;57.45;22.58;;;2.90;99.90;;;;;;5009342;28;20034;-81
2022/11/29 00:42:06;;;;;;;53.55;21.80;;;2.90;99.90;;;;;;5011181;28;20042;-81
2022/11/29 00:44:31;;;;;;;53.80;21.02;;;2.90;99.90;;;;;;5013782;28;20036;-81
2022/11/29 00:46:57;;;;;;;50.75;21.15;;;2.90;99.90;;;;;;5010856;28;20030;-80
2022/11/29 00:49:23;;;;;;;53.55;21.23;;;2.90;99.90;;;;;;5006067;28;20031;-81
2022/11/29 00:51:48;;;;;;;52.63;22.77;;;3.00;99.90;;;;;;5003225;28;20033;-81
2022/11/29 00:54:14;;;;;;;52.75;21.65;;;3.00;99.90;;;;;;5003544;28;20022;-80
2022/11/29 00:56:40;;;;;;;52.95;22.02;;;3.00;99.90;;;;;;5003003;28;20108;-80
2022/11/29 00:59:05;;;;;;;55.47;20.90;;;3.00;99.90;;;;;;5004011;28;20023;-81
2022/11/29 01:01:31;;;;;;;52.72;22.63;;;3.00;99.90;;;;;;5008103;28;20018;-80
2022/11/29 01:03:58;;;;;;;52.50;21.45;;;3.00;99.90;;;;;;5013787;28;20015;-81
2022/11/29 01:06:24;;;;;;;53.53;21.15;;;3.00;99.90;;;;;;5016593;28;20010;-81
2022/11/29 01:08:49;;;;;;;47.22;20.38;;;3.00;99.90;;;;;;5015430;28;20026;-81
2022/11/29 01:11:17;;;;;;;55.38;21.98;;;3.00;99.90;;;;;;5013657;28;20106;-80
2022/11/29 01:13:43;;;;;;;54.75;22.02;;;3.00;99.90;;;;;;5012939;28;20030;-80
2022/11/29 01:16:09;;;;;;;56.58;21.27;;;3.00;99.90;;;;;;5012030;28;20030;-80
2022/11/29 01:18:35;;;;;;;56.80;21.83;;;3.00;99.90;;;;;;5010371;28;20026;-81
2022/11/29 01:21:07;;;;;;;55.45;22.60;;;3.00;99.90;;;;;;5012222;28;20019;-81
2022/11/29 01:23:34;;;;;;;56.70;21.60;;;3.00;99.90;;;;;;5011230;28;20498;-80
2022/11/29 01:26:06;;;;;;;52.28;21.63;;;3.00;99.90;;;;;;5008398;28;20417;-80
2022/11/29 01:28:33;;;;;;;56.83;21.73;;;2.90;99.90;;;;;;5006646;28;20098;-81
2022/11/29 01:30:58;;;;;;;51.30;20.95;;;2.90;99.90;;;;;;5008467;28;20087;-80
2022/11/29 01:33:24;;;;;;;52.15;21.70;;;2.90;99.90;;;;;;5007399;28;20080;-81
2022/11/29 01:35:53;;;;;;;51.92;20.80;;;2.90;99.90;;;;;;5006183;28;20077;-80
2022/11/29 01:38:20;;;;;;;50.35;20.58;;;2.90;99.90;;;;;;5006267;28;20056;-80
2022/11/29 01:41:00;;;;;;;52.03;21.38;;;2.90;99.90;;;;;;5006163;28;20049;-80
2022/11/29 01:43:26;;;;;;;57.28;22.55;;;2.90;99.90;;;;;;5005547;28;20053;-80
2022/11/29 01:45:52;;;;;;;53.17;20.98;;;3.00;99.90;;;;;;5005884;28;20030;-80
2022/11/29 01:48:26;;;;;;;48.22;20.40;;;2.90;99.90;;;;;;5004875;28;20482;-80
2022/11/29 01:50:53;;;;;;;53.03;22.17;;;2.90;99.90;;;;;;5004909;28;20026;-80
2022/11/29 01:53:19;;;;;;;43.33;20.10;;;2.90;99.90;;;;;;5005830;28;20038;-80
2022/11/29 01:55:51;;;;;;;48.47;20.92;;;2.90;99.90;;;;;;5006094;28;20037;-80
2022/11/29 01:58:17;;;;;;;50.65;20.85;;;2.90;99.90;;;;;;5007102;28;20022;-80
2022/11/29 02:00:42;;;;;;;52.47;19.80;;;2.90;99.90;;;;;;5006475;28;20098;-81
2022/11/29 02:03:14;;;;;;;46.60;19.90;;;2.90;99.90;;;;;;5005566;28;20062;-80
2022/11/29 02:05:44;;;;;;;49.33;20.65;;;2.90;99.90;;;;;;5005347;28;20057;-80
2022/11/29 02:08:13;;;;;;;47.60;19.98;;;2.90;99.90;;;;;;5004729;28;20026;-80
2022/11/29 02:11:03;;;;;;;49.17;19.73;;;2.90;99.90;;;;;;5006878;28;20455;-79
2022/11/29 02:13:51;;;;;;;46.72;19.35;;;2.90;99.90;;;;;;5005532;28;20034;-80
2022/11/29 02:16:35;;;;;;;49.20;19.52;;;2.90;99.90;;;;;;5005098;28;20026;-80
2022/11/29 02:19:35;;;;;;;48.28;20.38;;;2.90;99.90;;;;;;5004008;28;20038;-80
2022/11/29 02:22:07;;;;;;;50.53;20.55;;;2.90;99.90;;;;;;4975495;28;20050;-80
2022/11/29 02:24:51;;;;;;;47.03;19.60;;;2.90;99.90;;;;;;5005854;28;20431;-80
2022/11/29 02:27:34;;;;;;;45.42;19.70;;;2.90;99.90;;;;;;5006497;28;20034;-80
2022/11/29 02:30:08;;;;;;;43.58;18.60;;;2.90;99.90;;;;;;5004114;28;20035;-80
2022/11/29 02:33:03;;;;;;;49.15;20.90;;;2.90;99.90;;;;;;5005133;28;20038;-80
2022/11/29 02:35:53;;;;;;;46.72;19.23;;;2.90;99.90;;;;;;5007980;28;20054;-80
2022/11/29 02:38:30;;;;;;;47.92;19.95;;;2.90;99.90;;;;;;5026636;28;20037;-80
2022/11/29 02:41:34;;;;;;;47.40;19.45;;;2.80;99.90;;;;;;5010266;28;20026;-80
2022/11/29 02:44:18;;;;;;;47.45;20.15;;;2.90;99.90;;;;;;5025259;28;20030;-80
2022/11/29 02:47:23;;;;;;;48.45;19.50;;;2.80;99.90;;;;;;5025159;28;20089;-81
2022/11/29 02:50:10;;;;;;;43.58;18.27;;;2.80;99.90;;;;;;5006602;28;20049;-80
2022/11/29 02:52:36;;;;;;;41.72;17.50;;;2.80;99.90;;;;;;5007659;28;20355;-80
2022/11/29 02:55:19;;;;;;;41.38;19.10;;;2.80;99.90;;;;;;5011223;28;20033;-80
2022/11/29 02:58:16;;;;;;;38.17;17.55;;;2.80;99.90;;;;;;5010405;28;20026;-80
2022/11/29 03:01:22;;;;;;;41.35;17.63;;;2.80;99.90;;;;;;5028156;28;20029;-80
2022/11/29 03:04:14;;;;;;;44.88;19.15;;;2.80;99.90;;;;;;5010963;28;20025;-81
2022/11/29 03:07:02;;;;;;;44.00;17.98;;;2.80;99.90;;;;;;5009121;28;20033;-81
2022/11/29 03:09:45;;;;;;;43.47;18.15;;;2.80;99.90;;;;;;5007758;28;20474;-80
2022/11/29 03:12:36;;;;;;;44.00;17.73;;;2.80;99.90;;;;;;5024130;28;20041;-80
2022/11/29 03:15:08;;;;;;;49.17;18.88;;;2.80;99.90;;;;;;5006445;28;20068;-80
2022/11/29 03:17:52;;;;;;;46.85;19.33;;;2.80;99.90;;;;;;5005323;28;20064;-80
2022/11/29 03:20:46;;;;;;;38.40;17.80;;;2.80;99.90;;;;;;5024076;28;20398;-80
2022/11/29 03:23:57;;;;;;;42.00;17.67;;;2.80;99.90;;;;;;5007572;28;20026;-80
2022/11/29 03:26:50;;;;;;;42.75;17.58;;;2.80;99.90;;;;;;4925444;29;20032;-80
2022/11/29 03:29:37;;;;;;;42.63;18.17;;;2.80;99.90;;;;;;5009107;28;20049;-81
2022/11/29 03:32:24;;;;;;;41.33;17.92;;;2.80;99.90;;;;;;5012534;28;20029;-80
2022/11/29 03:35:17;;;;;;;42.15;17.23;;;2.80;99.90;;;;;;5007551;28;20050;-80
2022/11/29 03:38:01;;;;;;;43.22;19.27;;;2.80;99.90;;;;;;5009903;28;20037;-80
2022/11/29 03:40:53;;;;;;;45.42;18.90;;;2.80;99.90;;;;;;5011856;28;20031;-81
2022/11/29 03:44:01;;;;;;;47.60;19.52;;;2.70;99.90;;;;;;5010940;28;20033;-81
2022/11/29 03:46:57;;;;;;;47.67;20.10;;;2.70;99.90;;;;;;4998909;28;20062;-80
2022/11/29 03:49:29;;;;;;;43.35;18.13;;;2.70;99.90;;;;;;5008446;28;20109;-80
2022/11/29 03:52:25;;;;;;;41.00;17.65;;;2.70;99.90;;;;;;5008347;28;20466;-80
2022/11/29 03:55:22;;;;;;;43.65;18.90;;;2.70;99.90;;;;;;5008862;28;20098;-80
2022/11/29 03:58:27;;;;;;;48.45;20.77;;;2.80;99.90;;;;;;5008612;28;20031;-80
2022/11/29 04:01:27;;;;;;;51.22;19.23;;;2.80;99.90;;;;;;4965445;28;20034;-80
2022/11/29 04:03:56;;;;;;;43.03;18.83;;;2.70;99.90;;;;;;5006245;28;20118;-80
2022/11/29 04:06:59;;;;;;;42.90;18.70;;;2.70;99.90;;;;;;5005296;28;20031;-80
2022/11/29 04:09:56;;;;;;;45.88;19.75;;;2.70;99.90;;;;;;5007239;28;20461;-80
2022/11/29 04:12:31;;;;;;;45.65;18.95;;;2.70;99.90;;;;;;4993400;28;20046;-80
2022/11/29 04:15:07;;;;;;;46.90;19.27;;;2.70;99.90;;;;;;5008093;28;20054;-80
2022/11/29 04:17:38;;;;;;;50.90;20.95;;;2.80;99.90;;;;;;5009146;28;20518;-79
2022/11/29 04:20:48;;;;;;;42.42;18.70;;;2.80;99.90;;;;;;5007598;28;20027;-79
2022/11/29 04:23:37;;;;;;;42.45;18.42;;;2.80;99.90;;;;;;5008384;28;20034;-80
2022/11/29 04:26:09;;;;;;;;;;;2.80;99.90;;;;;;5007842;28;20026;-80
2022/11/29 04:28:55;;;;;;;38.42;18.88;;;2.80;99.90;;;;;;5007017;28;20251;-80
2022/11/29 04:32:09;;;;;;;43.40;17.90;;;2.80;99.90;;;;;;5006561;28;20027;-80
2022/11/29 04:35:15;;;;;;;38.40;17.63;;;2.80;99.90;;;;;;5012715;28;20058;-80
2022/11/29 04:37:59;;;;;;;37.85;17.88;;;2.80;99.90;;;;;;5032796;28;20030;-81
2022/11/29 04:40:44;;;;;;;42.47;17.45;;;2.80;99.90;;;;;;5018920;28;20022;-80
2022/11/29 04:43:47;;;;;;;42.03;19.35;;;2.80;99.90;;;;;;5034985;28;20100;-80
2022/11/29 04:46:51;;;;;;;45.25;17.65;;;2.80;99.90;;;;;;5015705;28;20030;-81
2022/11/29 04:49:25;;;;;;;39.70;18.05;;;2.80;99.90;;;;;;5031552;28;20030;-80
2022/11/29 04:52:04;;;;;;;45.75;19.05;;;2.90;99.90;;;;;;5033781;28;20079;-80
2022/11/29 04:54:55;;;;;;;42.47;18.30;;;2.90;99.90;;;;;;5017429;28;20026;-81
2022/11/29 04:57:50;;;;;;;40.85;17.88;;;2.90;99.90;;;;;;5019983;28;20092;-81
2022/11/29 05:00:19;;;;;;;41.33;17.65;;;2.90;99.90;;;;;;5036519;28;20036;-81
2022/11/29 05:03:03;;;;;;;44.13;18.08;;;2.90;99.90;;;;;;5031152;28;20459;-81
2022/11/29 05:05:33;;;;;;;42.70;17.58;;;2.80;99.90;;;;;;5030496;28;20029;-80
2022/11/29 05:08:17;;;;;;;39.78;18.95;;;2.80;99.90;;;;;;5013860;28;20034;-80
2022/11/29 05:10:43;;;;;;;42.65;18.08;;;2.80;99.90;;;;;;5011866;28;20060;-79
2022/11/29 05:13:28;;;;;;;38.35;17.42;;;2.80;99.90;;;;;;5024389;28;20057;-78
2022/11/29 05:16:12;;;;;;;41.17;17.65;;;2.80;99.90;;;;;;4968483;28;20042;-80
2022/11/29 05:18:59;;;;;;;44.70;18.45;;;2.70;99.90;;;;;;5027902;23;20026;-81
2022/11/29 05:32:14;;;;;;;42.40;19.00;;;2.60;99.90;;;;;;5371566;22;20024;-79
2022/11/29 05:34:42;;;;;;;43.67;18.73;;;2.60;99.90;;;;;;5013998;28;20049;-81
2022/11/29 05:37:29;;;;;;;44.03;19.98;;;2.60;99.90;;;;;;5025668;28;20117;-78
2022/11/29 05:40:00;;;;;;;46.58;20.02;;;2.60;99.90;;;;;;5022271;28;20026;-77
2022/11/29 05:42:50;;;;;;;46.03;19.75;;;2.60;99.90;;;;;;5020112;28;20026;-78
2022/11/29 05:45:19;;;;;;;46.13;19.83;;;2.60;99.90;;;;;;5022375;28;20469;-78
2022/11/29 05:47:51;;;;;;;42.65;20.05;;;2.60;99.90;;;;;;5024629;28;20455;-73
2022/11/29 05:50:37;;;;;;;43.35;19.58;;;2.60;99.90;;;;;;5023889;28;20030;-74
2022/11/29 05:53:53;;;;;;;43.63;19.25;;;2.60;99.90;;;;;;5022864;28;20029;-73
2022/11/29 05:56:51;;;;;;;54.00;22.75;;;2.70;99.90;;;;;;4978078;28;20041;-73
2022/11/29 05:59:26;;;;;;;49.35;21.73;;;2.70;99.90;;;;;;5004092;28;20097;-73
2022/11/29 06:01:56;;;;;;;51.17;21.80;;;2.80;99.90;;;;;;5020843;28;20030;-74
2022/11/29 06:04:38;;;;;;;47.88;20.70;;;2.70;99.90;;;;;;5021910;28;20490;-73
2022/11/29 06:07:18;;;;;;;53.53;23.00;;;2.70;99.90;;;;;;5020922;28;20470;-73
2022/11/29 06:09:55;;;;;;;51.03;21.35;;;2.80;99.90;;;;;;5021609;28;20026;-74
2022/11/29 06:12:23;;;;;;;46.92;20.25;;;2.80;99.90;;;;;;5019847;28;20034;-74
2022/11/29 06:15:24;;;;;;;48.92;20.77;;;2.80;99.90;;;;;;5019567;28;20056;-73
2022/11/29 06:18:11;;;;;;;50.15;21.35;;;2.80;99.90;;;;;;4949518;28;20139;-74
2022/11/29 06:20:52;;;;;;;52.65;22.92;;;2.80;99.90;;;;;;5020105;28;20109;-75
2022/11/29 06:23:48;;;;;;;56.30;23.60;;;2.80;99.90;;;;;;5020797;28;20030;-73
2022/11/29 06:26:35;;;;;;;53.10;23.35;;;2.80;99.90;;;;;;5004747;28;20041;-73
2022/11/29 06:29:48;;;;;;;47.80;20.65;;;2.90;99.90;;;;;;5020231;28;20018;-73
2022/11/29 06:32:49;;;;;;;52.95;21.38;;;2.80;99.90;;;;;;5000410;28;20088;-73
2022/11/29 06:35:44;;;;;;;52.58;20.67;;;2.90;99.90;;;;;;5019457;28;20428;-73
2022/11/29 06:38:19;;;;;;;56.30;23.65;;;2.90;99.90;;;;;;5020705;28;20026;-73
2022/11/29 06:40:45;;;;;;;52.63;22.98;;;2.90;99.90;;;;;;5020043;28;20026;-73
2022/11/29 06:43:11;;;;;;;56.53;23.85;;;2.90;99.90;;;;;;5020919;28;20493;-73
2022/11/29 06:45:40;;;;;;;52.63;23.30;;;2.90;99.90;;;;;;5003841;28;20022;-73
2022/11/29 06:48:08;;;;;;;55.95;23.38;;;2.90;99.90;;;;;;5019345;28;20026;-73
2022/11/29 06:51:12;;;;;;;54.80;24.15;;;2.90;99.90;;;;;;5020459;28;20026;-73
2022/11/29 06:53:44;;;;;;;53.38;23.08;;;3.00;99.90;;;;;;5004109;28;20026;-73
2022/11/29 06:56:28;;;;;;;52.83;23.80;;;3.00;99.90;;;;;;5017890;28;20529;-74
2022/11/29 06:59:02;;;;;;;60.25;24.08;;;2.90;99.90;;;;;;5019770;28;20080;-74
2022/11/29 07:01:55;;;;;;;55.30;25.25;;;2.90;99.90;;;;;;5018406;28;20033;-73
2022/11/29 07:04:44;;;;;;;54.72;23.25;;;3.00;99.90;;;;;;5019405;28;20069;-74
2022/11/29 07:07:16;;;;;;;49.75;24.10;;;3.00;99.90;;;;;;5009674;28;20053;-74
2022/11/29 07:09:42;;;;;;;52.42;23.30;;;3.00;99.90;;;;;;5019447;28;20152;-74
2022/11/29 07:12:08;;;;;;;49.83;22.77;;;2.90;99.90;;;;;;5020683;28;20053;-74
2022/11/29 07:14:35;;;;;;;51.67;23.48;;;2.90;99.90;;;;;;5018076;28;20053;-74
2022/11/29 07:17:25;;;;;;;59.20;23.95;;;2.90;99.90;;;;;;5017980;28;20418;-74
2022/11/29 07:20:19;;;;;;;59.85;25.38;;;3.00;99.90;;;;;;5019018;28;20532;-73
2022/11/29 07:23:13;;;;;;;54.40;23.83;;;3.00;99.90;;;;;;5017405;28;20474;-74
2022/11/29 07:26:04;;;;;;;57.38;25.60;;;3.00;99.90;;;;;;5018726;28;20037;-74
2022/11/29 07:28:57;;;;;;;57.55;25.70;;;3.00;99.90;;;;;;5020343;28;20037;-74
2022/11/29 07:31:50;;;;;;;66.20;24.65;;;3.00;99.90;;;;;;5019352;28;20355;-74
2022/11/29 07:34:22;;;;;;;59.65;25.15;;;3.10;99.90;;;;;;5019145;28;20048;-74
2022/11/29 07:37:00;;;;;;;57.70;24.73;;;3.10;99.90;;;;;;5018979;28;20049;-74
2022/11/29 07:39:57;;;;;;;60.13;25.30;;;3.10;99.90;;;;;;5019892;28;20466;-73
2022/11/29 07:43:01;;;;;;;52.50;23.77;;;3.10;99.90;;;;;;5022514;28;20025;-74
2022/11/29 07:45:30;;;;;;;53.20;23.88;;;3.10;99.90;;;;;;5023588;28;20279;-74
2022/11/29 07:47:56;;;;;;;58.92;25.83;;;3.10;99.90;;;;;;5024473;28;20106;-74
2022/11/29 07:50:23;;;;;;;53.92;24.65;;;3.10;99.90;;;;;;5022669;28;20025;-74
2022/11/29 07:52:49;;;;;;;55.72;24.50;;;3.10;99.90;;;;;;5020255;28;20030;-73
2022/11/29 07:55:20;;;;;;;52.20;23.05;;;3.10;99.90;;;;;;5021023;28;20113;-73
2022/11/29 07:57:46;;;;;;;54.35;23.23;;;3.10;99.90;;;;;;5019489;28;20034;-73
2022/11/29 08:00:13;;;;;;;52.58;23.20;;;3.10;99.90;;;;;;5019490;28;20076;-74
2022/11/29 08:02:40;;;;;;;51.90;22.92;;;3.10;99.90;;;;;;5020103;28;20026;-73
2022/11/29 08:05:07;;;;;;;50.88;22.58;;;3.10;99.90;;;;;;5002372;28;20059;-74
2022/11/29 08:07:37;;;;;;;50.13;23.20;;;3.20;99.90;;;;;;5019949;28;20030;-73
2022/11/29 08:10:05;;;;;;;50.78;22.52;;;3.20;99.90;;;;;;5019899;28;20113;-74
2022/11/29 08:12:31;;;;;;;51.72;22.20;;;3.30;99.90;;;;;;5018798;28;20030;-73
2022/11/29 08:14:56;;;;;;;50.90;22.05;;;3.30;99.90;;;;;;5018829;28;20152;-74
2022/11/29 08:17:23;;;;;;;46.88;22.15;;;3.30;99.90;;;;;;5021582;28;20034;-73
2022/11/29 08:19:49;;;;;;;52.08;23.50;;;3.40;99.90;;;;;;5021151;28;20125;-74
2022/11/29 08:22:14;;;;;;;45.22;21.88;;;3.40;99.90;;;;;;5021246;28;20056;-74
2022/11/29 08:24:40;;;;;;;45.55;20.70;;;3.40;99.90;;;;;;5018673;28;20037;-74
2022/11/29 08:27:06;;;;;;;48.13;22.90;;;3.50;99.90;;;;;;5021774;28;20038;-74
2022/11/29 08:29:31;;;;;;;47.25;22.13;;;3.50;99.90;;;;;;5020077;28;20026;-74
2022/11/29 08:31:57;;;;;;;49.05;22.25;;;3.50;99.90;;;;;;5004709;28;20117;-74
2022/11/29 08:34:23;;;;;;;48.75;22.60;;;3.60;99.90;;;;;;5021701;28;20026;-74
2022/11/29 08:36:50;;;;;;;45.45;22.27;;;3.60;99.90;;;;;;5022086;28;20029;-74
2022/11/29 08:39:16;;;;;;;44.40;22.20;;;3.60;99.90;;;;;;5020145;28;20030;-73
2022/11/29 08:41:42;;;;;;;46.28;21.73;;;3.60;99.90;;;;;;5004400;28;20044;-74
2022/11/29 08:44:08;;;;;;;50.72;23.48;;;3.60;99.90;;;;;;5020505;28;20033;-74
2022/11/29 08:49:18;;;;;;;46.25;22.00;;;3.60;99.90;;;;;;5022086;28;20061;-74
2022/11/29 08:51:44;;;;;;;49.17;21.35;;;3.60;99.90;;;;;;5022198;28;20446;-74
2022/11/29 08:54:09;;;;;;;45.28;21.50;;;3.60;99.90;;;;;;5026097;28;20363;-74
2022/11/29 08:56:36;;;;;;;45.53;23.38;;;3.60;99.90;;;;;;5024273;28;20026;-74
2022/11/29 08:59:03;;;;;;;44.30;22.23;;;3.70;99.90;;;;;;5007347;28;20036;-75
2022/11/29 09:01:28;;;;;;;42.40;19.80;;;3.70;99.90;;;;;;5024487;28;20076;-74
2022/11/29 09:04:05;;;;;;;46.53;22.23;;;3.70;99.90;;;;;;5022362;28;20026;-74
2022/11/29 09:06:33;;;;;;;45.33;20.90;;;3.70;99.90;;;;;;5020242;28;20041;-74
2022/11/29 09:09:00;;;;;;;48.40;22.23;;;3.60;99.90;;;;;;5022505;28;20026;-74
2022/11/29 09:11:28;;;;;;;50.28;22.52;;;3.60;99.90;;;;;;5021274;28;20022;-74
2022/11/29 09:13:56;;;;;;;52.87;22.97;;;3.70;99.90;;;;;;5021081;28;20030;-74
2022/11/29 09:16:24;;;;;;;46.05;22.60;;;3.70;99.90;;;;;;5020956;28;20042;-74
2022/11/29 09:18:53;;;;;;;47.03;22.50;;;3.70;99.90;;;;;;5021061;28;20034;-74
2022/11/29 09:21:19;;;;;;;44.70;22.52;;;3.80;99.90;;;;;;5003780;28;20033;-74
2022/11/29 09:23:45;;;;;;;47.00;22.45;;;3.80;99.90;;;;;;5019340;28;20394;-74
2022/11/29 09:26:16;;;;;;;42.83;21.77;;;3.80;99.90;;;;;;5022448;28;20048;-74
2022/11/29 09:28:41;;;;;;;46.88;22.88;;;3.80;99.90;;;;;;5006911;28;20025;-74
2022/11/29 09:31:11;;;;;;;43.78;22.67;;;3.90;99.90;;;;;;5024546;28;20030;-74
2022/11/29 09:33:38;;;;;;;44.50;22.40;;;3.90;99.90;;;;;;5022743;28;20048;-74
2022/11/29 09:36:05;;;;;;;51.00;23.45;;;3.80;99.90;;;;;;5022235;28;20080;-74
2022/11/29 09:38:32;;;;;;;42.60;23.05;;;3.80;99.90;;;;;;5024204;28;20022;-74
2022/11/29 09:41:26;;;;;;;44.10;22.15;;;3.80;99.90;;;;;;5022745;28;20381;-74
2022/11/29 09:44:10;;;;;;;45.53;22.30;;;3.80;99.90;;;;;;5022387;28;20056;-74
2022/11/29 09:47:03;;;;;;;41.55;21.23;;;3.80;99.90;;;;;;5021913;28;20030;-74
2022/11/29 09:49:47;;;;;;;43.58;21.35;;;3.70;99.90;;;;;;5022340;28;20030;-74
2022/11/29 09:52:35;;;;;;;44.33;20.52;;;3.80;99.90;;;;;;5021341;28;20414;-74
2022/11/29 09:55:12;;;;;;;48.10;22.55;;;3.80;99.90;;;;;;5023978;28;20056;-74
2022/11/29 09:57:42;;;;;;;42.67;20.73;;;3.90;99.90;;;;;;5024004;28;20497;-74
2022/11/29 10:00:16;;;;;;;39.15;20.77;;;3.90;99.90;;;;;;5022823;28;20036;-74
2022/11/29 10:02:51;;;;;;;44.85;21.90;;;3.90;99.90;;;;;;5023135;28;20022;-74
2022/11/29 10:05:21;;;;;;;45.83;21.17;;;3.90;99.90;;;;;;5005783;28;20030;-74
2022/11/29 10:08:00;;;;;;;49.10;22.13;;;3.90;99.90;;;;;;5022580;28;20037;-74
2022/11/29 10:10:40;;;;;;;42.30;20.13;;;3.90;99.90;;;;;;5024300;28;20030;-74
2022/11/29 10:13:24;;;;;;;40.65;21.02;;;4.00;99.90;;;;;;5022514;28;20030;-74
2022/11/29 10:15:58;;;;;;;40.17;19.85;;;4.00;99.90;;;;;;5022285;28;20454;-74
2022/11/29 10:18:34;;;;;;;41.47;21.42;;;4.10;99.90;;;;;;5023252;28;20378;-74
2022/11/29 10:21:08;;;;;;;36.92;19.67;;;4.20;99.90;;;;;;5024061;28;20071;-74
2022/11/29 10:23:40;;;;;;;52.00;22.92;;;4.30;99.90;;;;;;5024535;28;20030;-74
2022/11/29 10:26:07;;;;;;;32.85;17.63;;;4.40;99.90;;;;;;5022897;28;20124;-75
2022/11/29 10:28:35;;;;;;;34.33;17.27;;;4.40;99.90;;;;;;5021728;28;20030;-73
2022/11/29 10:31:34;;;;;;;31.55;17.25;;;4.40;99.90;;;;;;5023205;28;20076;-74
2022/11/29 10:34:10;;;;;;;33.58;16.60;;;4.40;99.90;;;;;;5021295;28;20054;-74
2022/11/29 10:36:44;;;;;;;36.17;16.45;;;4.50;99.90;;;;;;5020861;28;20037;-74
2022/11/29 10:39:24;;;;;;;34.20;16.38;;;4.50;99.90;;;;;;5022435;28;20022;-74
2022/11/29 10:41:59;;;;;;;30.75;16.35;;;4.60;99.90;;;;;;5021863;28;20029;-75
2022/11/29 10:44:25;;;;;;;32.47;15.65;;;4.70;99.90;;;;;;5004569;28;20026;-75
2022/11/29 10:46:52;;;;;;;31.58;16.10;;;4.80;99.90;;;;;;5018708;28;20118;-74
2022/11/29 10:49:22;;;;;;;30.42;16.35;;;4.70;99.90;;;;;;5022879;28;20049;-74
2022/11/29 10:51:47;;;;;;;30.65;15.93;;;4.60;99.90;;;;;;5021186;28;20028;-74
2022/11/29 10:54:31;;;;;;;30.85;16.23;;;4.60;99.90;;;;;;5023051;28;20053;-74
2022/11/29 10:57:00;;;;;;;39.03;17.48;;;4.60;99.90;;;;;;5021731;28;20098;-75
2022/11/29 10:59:31;;;;;;;28.73;15.68;;;4.70;99.90;;;;;;5018948;28;20532;-75
2022/11/29 11:01:57;;;;;;;27.83;15.10;;;4.70;99.90;;;;;;5020994;28;20044;-75
2022/11/29 11:04:34;;;;;;;43.30;17.63;;;4.70;99.90;;;;;;5020584;28;20030;-75
2022/11/29 11:07:03;;;;;;;30.45;16.17;;;4.70;99.90;;;;;;5022057;28;20116;-75
2022/11/29 11:09:28;;;;;;;30.75;16.92;;;4.60;99.90;;;;;;5019833;28;20099;-74
2022/11/29 11:11:57;;;;;;;36.10;18.50;;;4.50;99.90;;;;;;5019201;28;20025;-74
2022/11/29 11:14:29;;;;;;;34.90;18.40;;;4.60;99.90;;;;;;5022324;28;20026;-74
2022/11/29 11:16:55;;;;;;;31.25;17.17;;;4.40;99.90;;;;;;5021073;28;20092;-74
2022/11/29 11:19:32;;;;;;;35.22;17.95;;;4.40;99.90;;;;;;5020994;28;20030;-74
2022/11/29 11:22:00;;;;;;;31.10;15.40;;;4.40;99.90;;;;;;5021294;28;20037;-74
2022/11/29 11:24:28;;;;;;;33.95;17.55;;;4.50;99.90;;;;;;5019316;28;20034;-75
2022/11/29 11:26:54;;;;;;;40.33;19.15;;;4.50;99.90;;;;;;5021046;28;20030;-74
2022/11/29 11:29:23;;;;;;;31.02;17.13;;;4.50;99.90;;;;;;5023028;28;20033;-75
2022/11/29 11:32:00;;;;;;;43.20;16.85;;;4.50;99.90;;;;;;5020565;28;20101;-75
2022/11/29 11:34:36;;;;;;;31.85;17.00;;;4.40;99.90;;;;;;5019899;28;20026;-74
2022/11/29 11:37:15;;;;;;;31.40;16.85;;;4.30;99.90;;;;;;5017228;28;20034;-75
2022/11/29 11:39:45;;;;;;;33.30;16.07;;;4.40;99.90;;;;;;5018388;28;20060;-75
2022/11/29 11:45:00;;;;;;;33.83;17.23;;;4.40;99.90;;;;;;5022873;28;20040;-75
2022/11/29 11:47:28;;;;;;;38.70;17.52;;;4.40;99.90;;;;;;5019808;28;20030;-75
2022/11/29 11:50:01;;;;;;;30.77;17.20;;;4.40;99.90;;;;;;5021081;28;20466;-75
2022/11/29 11:52:40;;;;;;;30.55;16.27;;;4.40;99.90;;;;;;5020902;28;20041;-75
2022/11/29 11:55:29;;;;;;;29.85;16.58;;;4.50;99.90;;;;;;5020668;28;20025;-75
2022/11/29 11:57:59;;;;;;;29.85;16.30;;;4.50;99.90;;;;;;4972246;28;20045;-75
2022/11/29 12:00:40;;;;;;;28.45;15.88;;;4.60;99.90;;;;;;5018713;28;20026;-75
2022/11/29 12:03:27;;;;;;;30.45;16.80;;;4.60;99.90;;;;;;5022117;28;20045;-75
2022/11/29 12:05:56;;;;;;;29.98;15.55;;;4.60;99.90;;;;;;5009466;28;20022;-75
2022/11/29 12:08:25;;;;;;;28.00;14.13;;;4.70;99.90;;;;;;5026908;28;20049;-75
2022/11/29 12:10:55;;;;;;;34.13;16.65;;;4.90;99.90;;;;;;5026523;28;20064;-75
2022/11/29 12:13:26;;;;;;;31.92;17.13;;;4.90;99.90;;;;;;5025080;28;20033;-75
2022/11/29 12:15:55;;;;;;;29.33;16.15;;;4.90;99.90;;;;;;5024445;28;20082;-75
2022/11/29 12:18:29;;;;;;;;;;;4.90;99.90;;;;;;5024830;28;20030;-74
2022/11/29 12:20:55;;;;;;;26.75;15.15;;;4.90;99.90;;;;;;5022522;28;19912;-75
2022/11/29 12:23:29;;;;;;;28.90;15.57;;;4.90;99.90;;;;;;5024130;28;20025;-74
2022/11/29 12:26:12;;;;;;;30.00;16.63;;;5.00;99.90;;;;;;5022804;28;20085;-75
2022/11/29 12:28:40;;;;;;;28.90;15.00;;;5.00;99.90;;;;;;5023375;28;20053;-75
2022/11/29 12:31:40;;;;;;;26.02;13.98;;;5.00;99.90;;;;;;5021451;28;20034;-75
2022/11/29 12:34:25;;;;;;;25.38;14.43;;;5.00;99.90;;;;;;5021457;28;20088;-75
2022/11/29 12:37:10;;;;;;;41.25;16.38;;;5.10;99.90;;;;;;5020818;28;20370;-75
2022/11/29 12:39:48;;;;;;;21.23;12.65;;;5.10;99.90;;;;;;5020945;28;20026;-75
2022/11/29 12:42:35;;;;;;;20.02;11.57;;;5.10;99.90;;;;;;5019148;28;20030;-75
2022/11/29 12:45:21;;;;;;;21.58;11.65;;;5.20;99.90;;;;;;5022050;28;20040;-75
2022/11/29 12:48:18;;;;;;;20.45;11.25;;;5.20;99.90;;;;;;5021174;28;20491;-75
2022/11/29 12:51:04;;;;;;;16.15;9.75;;;5.30;99.90;;;;;;5021480;28;20026;-75
2022/11/29 12:53:32;;;;;;;14.52;9.70;;;5.20;99.90;;;;;;5020858;28;20030;-74
2022/11/29 12:56:28;;;;;;;17.73;11.00;;;5.10;99.90;;;;;;5020015;28;20026;-75
2022/11/29 12:59:07;;;;;;;17.15;10.07;;;5.10;99.90;;;;;;5020844;28;20030;-75
2022/11/29 13:01:45;;;;;;;18.63;10.65;;;5.20;99.90;;;;;;5004917;28;20030;-74
2022/11/29 13:04:20;;;;;;;15.90;9.30;;;5.20;99.90;;;;;;5023532;28;20038;-74
2022/11/29 13:06:54;;;;;;;14.63;9.27;;;5.20;99.90;;;;;;5022328;28;20034;-74
2022/11/29 13:09:32;;;;;;;15.55;9.32;;;5.30;99.90;;;;;;5023368;28;20154;-75
2022/11/29 13:12:08;;;;;;;16.83;10.27;;;5.30;99.90;;;;;;5028340;28;20053;-75
2022/11/29 13:14:43;;;;;;;17.92;10.05;;;5.10;99.90;;;;;;5026648;28;20508;-75
2022/11/29 13:17:36;;;;;;;15.23;9.52;;;5.10;99.90;;;;;;5008506;28;20030;-74
2022/11/29 13:20:28;;;;;;;16.55;9.88;;;5.10;99.90;;;;;;5041390;28;20029;-74
2022/11/29 13:23:13;;;;;;;16.17;10.02;;;5.10;99.90;;;;;;5024691;28;20026;-74
2022/11/29 13:25:50;;;;;;;16.42;9.90;;;5.20;99.90;;;;;;5027204;28;20065;-74
2022/11/29 13:28:31;;;;;;;15.85;9.68;;;5.30;99.90;;;;;;5025728;28;20037;-74
2022/11/29 13:31:04;;;;;;;17.15;10.55;;;5.30;99.90;;;;;;5021598;28;20034;-74
2022/11/29 13:33:39;;;;;;;16.95;9.70;;;5.40;99.90;;;;;;5008121;28;20547;-74
2022/11/29 13:36:12;;;;;;;16.90;10.10;;;5.40;99.90;;;;;;5019940;28;20030;-74
2022/11/29 13:39:00;;;;;;;19.38;10.90;;;5.40;99.90;;;;;;5018562;28;20026;-74
2022/11/29 13:41:36;;;;;;;16.00;9.95;;;5.50;99.90;;;;;;5012088;28;20037;-73
2022/11/29 13:44:27;;;;;;;21.40;10.10;;;5.40;99.90;;;;;;5025293;28;20052;-75